Shinshar, Syria
Current Conditions -  °F | °C
As of 2:00 PM on Friday 31 Oct 2014 (Local Time) from OSDI Reporting Station
Broken Clouds Broken Clouds  
Wind Chill: 68°   Ceiling: 10000
Heat Index: 68°   Visibility: 6mi
Dew Point: 43°   Wind: 9mph
Humidity: 40%   Direction: 250°WSW
Pressure: 29.91"   Gusts: NA
Location:  34.56°N, 36.78°E
Report Text: OSDI 311100Z 25008KT 9999 SCT030 BKN100 20/06 Q1013
Loading
Personal Weather Stations






























Interactive Weather Map
Tropical Storm Tracking
New forecast layout! Learn more

10-Day Weather Forecast

Advertisements
Track Severe Weather on mobile